Time;durP1;ratioP1;P1;durP2;ratioP2;P2;SDS_P1;SDS_P2;PMS_P1;PMS_P2;Temp;Humidity;BMP_temperature;BMP_pressure;BME280_temperature;BME280_humidity;BME280_pressure;Samples;Min_cycle;Max_cycle;Signal;HPM_P1;HPM_P2
2022/01/10 00:02:26;;;;;;;58.03;22.07;;;1.20;99.90;;;;;;5073908;28;20280;-60
2022/01/10 00:04:52;;;;;;;54.83;21.73;;;1.20;99.90;;;;;;5074056;28;20185;-60
2022/01/10 00:07:18;;;;;;;65.63;24.77;;;1.30;99.90;;;;;;5074167;28;20660;-60
2022/01/10 00:09:43;;;;;;;62.40;24.83;;;1.30;99.90;;;;;;5073602;28;20209;-59
2022/01/10 00:12:10;;;;;;;68.60;23.83;;;1.20;99.90;;;;;;5073882;28;20185;-60
2022/01/10 00:14:36;;;;;;;66.53;22.73;;;1.20;99.90;;;;;;5073706;28;20533;-60
2022/01/10 00:17:03;;;;;;;56.13;21.67;;;1.20;99.90;;;;;;5073566;28;20351;-60
2022/01/10 00:19:28;;;;;;;56.57;23.77;;;1.10;99.90;;;;;;5073909;28;20185;-60
2022/01/10 00:21:55;;;;;;;58.97;22.97;;;1.00;99.90;;;;;;5073601;28;20616;-60
2022/01/10 00:24:21;;;;;;;61.07;23.70;;;1.00;99.90;;;;;;5073642;28;20193;-60
2022/01/10 00:26:47;;;;;;;70.53;24.23;;;1.00;99.90;;;;;;5073488;28;20176;-59
2022/01/10 00:29:13;;;;;;;62.83;23.10;;;1.00;99.90;;;;;;5064861;28;20266;-60
2022/01/10 00:31:38;;;;;;;63.37;24.87;;;1.00;99.90;;;;;;5053709;28;20192;-60
2022/01/10 00:34:05;;;;;;;59.67;23.27;;;1.00;99.90;;;;;;5035459;28;20184;-60
2022/01/10 00:36:30;;;;;;;56.87;23.27;;;1.00;99.90;;;;;;5053400;28;20535;-60
2022/01/10 00:38:56;;;;;;;62.47;25.23;;;1.00;99.90;;;;;;5053097;28;20235;-59
2022/01/10 00:41:22;;;;;;;61.27;22.57;;;1.00;99.90;;;;;;5053449;28;20557;-60
2022/01/10 00:43:50;;;;;;;59.20;23.07;;;0.90;99.90;;;;;;5053254;28;20616;-59
2022/01/10 00:46:16;;;;;;;59.97;24.63;;;1.00;99.90;;;;;;5053540;28;20494;-60
2022/01/10 00:48:42;;;;;;;61.27;23.97;;;1.00;99.90;;;;;;5052997;28;20707;-63
2022/01/10 00:51:08;;;;;;;63.13;24.67;;;1.00;99.90;;;;;;5055531;28;20273;-60
2022/01/10 00:53:34;;;;;;;56.67;23.53;;;1.00;99.90;;;;;;5055933;28;20224;-60
2022/01/10 00:56:00;;;;;;;57.77;24.10;;;1.00;99.90;;;;;;5018607;28;20189;-60
2022/01/10 00:58:26;;;;;;;60.43;23.57;;;1.00;99.90;;;;;;5053004;28;20271;-60
2022/01/10 01:00:51;;;;;;;69.33;25.07;;;1.00;99.90;;;;;;5052589;28;20213;-61
2022/01/10 01:03:18;;;;;;;58.77;24.70;;;1.00;99.90;;;;;;5052868;28;20182;-60
2022/01/10 01:05:45;;;;;;;67.13;25.07;;;1.00;99.90;;;;;;5035046;28;20186;-60
2022/01/10 01:08:12;;;;;;;64.33;25.70;;;1.00;99.90;;;;;;5052891;28;20182;-60
2022/01/10 01:13:50;;;;;;;77.33;28.07;;;1.10;99.90;;;;;;5078892;28;20273;-60
2022/01/10 01:16:30;;;;;;;76.87;28.13;;;1.00;99.90;;;;;;5092766;28;20176;-60
2022/01/10 01:20:03;;;;;;;75.03;28.20;;;1.00;99.90;;;;;;5092761;28;20649;-60
2022/01/10 01:24:28;;;;;;;78.70;28.23;;;0.90;99.90;;;;;;5092802;28;20176;-59
2022/01/10 01:26:54;;;;;;;73.30;28.53;;;0.90;99.90;;;;;;5092426;28;20176;-60
2022/01/10 01:29:26;;;;;;;62.83;26.00;;;0.90;99.90;;;;;;5082462;28;20561;-59
2022/01/10 01:31:52;;;;;;;69.00;27.07;;;0.90;99.90;;;;;;5071904;28;20371;-58
2022/01/10 01:34:20;;;;;;;68.77;27.00;;;0.90;99.90;;;;;;5072427;28;20632;-59
2022/01/10 01:36:50;;;;;;;61.27;24.90;;;0.80;99.90;;;;;;5072380;28;20625;-60
2022/01/10 01:39:20;;;;;;;63.90;24.93;;;0.80;99.90;;;;;;5072340;28;20630;-59
2022/01/10 01:41:47;;;;;;;70.73;26.40;;;0.70;99.90;;;;;;5072479;28;20220;-59
2022/01/10 01:44:13;;;;;;;63.20;26.33;;;0.70;99.90;;;;;;5072302;28;20185;-59
2022/01/10 01:46:39;;;;;;;67.93;26.07;;;0.80;99.90;;;;;;5072529;28;20503;-60
2022/01/10 01:49:07;;;;;;;60.13;25.87;;;0.80;99.90;;;;;;5071519;28;20725;-60
2022/01/10 01:51:33;;;;;;;70.57;27.27;;;0.80;99.90;;;;;;5072060;28;20615;-60
2022/01/10 01:53:59;;;;;;;66.87;27.23;;;0.70;99.90;;;;;;5071987;28;20177;-61
2022/01/10 01:56:25;;;;;;;72.43;27.57;;;0.70;99.90;;;;;;5072388;28;20177;-61
2022/01/10 01:58:53;;;;;;;71.73;26.80;;;0.70;99.90;;;;;;5071810;28;20180;-60
2022/01/10 02:01:19;;;;;;;66.60;26.53;;;0.70;99.90;;;;;;5072241;28;20178;-60
2022/01/10 02:03:46;;;;;;;87.70;33.23;;;0.70;99.90;;;;;;5072083;28;20179;-59
2022/01/10 02:06:13;;;;;;;75.07;29.00;;;0.70;99.90;;;;;;5072288;28;20386;-59
2022/01/10 02:08:39;;;;;;;72.33;28.37;;;0.80;99.90;;;;;;5072053;28;20219;-61
2022/01/10 02:11:07;;;;;;;74.93;28.97;;;0.70;99.90;;;;;;5089064;28;20183;-60
2022/01/10 02:13:33;;;;;;;66.40;26.83;;;0.70;99.90;;;;;;5092166;28;20242;-60
2022/01/10 02:16:04;;;;;;;67.87;28.13;;;0.70;99.90;;;;;;5092100;28;20263;-61
2022/01/10 02:18:32;;;;;;;71.97;27.87;;;0.70;99.90;;;;;;5074039;28;20606;-60
2022/01/10 02:21:00;;;;;;;65.10;26.83;;;0.70;99.90;;;;;;5092088;28;20267;-60
2022/01/10 02:23:27;;;;;;;74.00;27.00;;;0.70;99.90;;;;;;5092250;28;20540;-60
2022/01/10 02:25:54;;;;;;;63.63;25.67;;;0.70;99.90;;;;;;5093181;28;20575;-60
2022/01/10 02:28:19;;;;;;;56.83;23.80;;;0.70;99.90;;;;;;5094458;28;20216;-61
2022/01/10 02:30:45;;;;;;;68.17;25.83;;;0.80;99.90;;;;;;5075694;28;20185;-60
2022/01/10 02:33:11;;;;;;;62.23;24.67;;;0.80;99.90;;;;;;5075619;28;20532;-61
2022/01/10 02:35:53;;;;;;;65.97;25.80;;;0.70;99.90;;;;;;5075943;28;20628;-60
2022/01/10 02:38:19;;;;;;;60.60;24.57;;;0.70;99.90;;;;;;5075941;28;20168;-60
2022/01/10 02:40:46;;;;;;;60.00;24.47;;;0.70;99.90;;;;;;5075790;28;20177;-60
2022/01/10 02:43:12;;;;;;;56.93;23.47;;;0.80;99.90;;;;;;5075377;28;20279;-60
2022/01/10 02:45:38;;;;;;;56.90;23.67;;;0.80;99.90;;;;;;5075359;28;20209;-60
2022/01/10 02:48:03;;;;;;;53.50;21.10;;;0.80;99.90;;;;;;5075276;28;20232;-60
2022/01/10 02:50:29;;;;;;;55.47;22.53;;;0.70;99.90;;;;;;5075538;28;20228;-60
2022/01/10 02:52:55;;;;;;;50.20;20.13;;;0.70;99.90;;;;;;5075319;28;20272;-60
2022/01/10 02:55:21;;;;;;;49.10;20.80;;;0.70;99.90;;;;;;5075358;28;20196;-61
2022/01/10 02:57:47;;;;;;;46.83;20.90;;;0.70;99.90;;;;;;5074985;28;20169;-61
2022/01/10 03:00:18;;;;;;;46.97;19.90;;;0.70;99.90;;;;;;5074667;28;20193;-60
2022/01/10 03:02:48;;;;;;;55.77;21.80;;;0.70;99.90;;;;;;5075042;28;20169;-60
2022/01/10 03:05:15;;;;;;;51.27;20.23;;;0.70;99.90;;;;;;5074824;28;20201;-60
2022/01/10 03:07:41;;;;;;;50.57;19.30;;;0.80;99.90;;;;;;5075414;28;20312;-60
2022/01/10 03:10:07;;;;;;;45.87;18.97;;;0.70;99.90;;;;;;5083430;28;20291;-60
2022/01/10 03:12:34;;;;;;;51.50;19.23;;;0.70;99.90;;;;;;5095245;28;20271;-60
2022/01/10 03:15:01;;;;;;;49.40;18.10;;;0.70;99.90;;;;;;5094476;28;20606;-60
2022/01/10 03:17:27;;;;;;;44.87;18.97;;;0.70;99.90;;;;;;5095088;28;20184;-61
2022/01/10 03:19:53;;;;;;;55.53;22.60;;;0.70;99.90;;;;;;5094756;28;20532;-60
2022/01/10 03:22:19;;;;;;;50.30;21.47;;;0.70;99.90;;;;;;5095206;28;20183;-60
2022/01/10 03:24:44;;;;;;;49.03;19.87;;;0.70;99.90;;;;;;5094669;28;20167;-60
2022/01/10 03:27:11;;;;;;;54.53;20.87;;;0.70;99.90;;;;;;5094644;28;20195;-59
2022/01/10 03:29:37;;;;;;;48.30;19.97;;;0.70;99.90;;;;;;5082103;28;20210;-60
2022/01/10 03:32:05;;;;;;;48.73;21.00;;;0.60;99.90;;;;;;5074426;28;20185;-60
2022/01/10 03:34:32;;;;;;;48.47;19.97;;;0.60;99.90;;;;;;5074547;28;20184;-60
2022/01/10 03:36:58;;;;;;;57.93;21.70;;;0.60;99.90;;;;;;5073874;28;20249;-60
2022/01/10 03:39:24;;;;;;;51.13;20.63;;;0.60;99.90;;;;;;5074397;28;20490;-59
2022/01/10 03:41:50;;;;;;;51.43;20.73;;;0.60;99.90;;;;;;5074219;28;20691;-59
2022/01/10 03:44:16;;;;;;;54.23;22.00;;;0.60;99.90;;;;;;5074211;28;20322;-60
2022/01/10 03:46:42;;;;;;;54.13;21.40;;;0.60;99.90;;;;;;5074485;28;20180;-60
2022/01/10 03:49:07;;;;;;;53.50;21.30;;;0.60;99.90;;;;;;5074087;28;20664;-60
2022/01/10 03:51:33;;;;;;;50.67;21.57;;;0.60;99.90;;;;;;5074422;28;20183;-60
2022/01/10 03:53:59;;;;;;;58.83;21.57;;;0.60;99.90;;;;;;5073990;28;20750;-59
2022/01/10 03:56:27;;;;;;;48.10;21.23;;;0.60;99.90;;;;;;5074176;28;20186;-60
2022/01/10 03:58:53;;;;;;;50.63;20.03;;;0.60;99.90;;;;;;5074276;28;20199;-61
2022/01/10 04:01:19;;;;;;;52.17;20.00;;;0.60;99.90;;;;;;5073760;28;20169;-60
2022/01/10 04:03:45;;;;;;;50.60;21.13;;;0.60;99.90;;;;;;5073817;28;20628;-60
2022/01/10 04:06:11;;;;;;;51.77;21.53;;;0.60;99.90;;;;;;5073242;28;20187;-60
2022/01/10 04:08:37;;;;;;;51.23;20.90;;;0.50;99.90;;;;;;5073549;28;20643;-60
2022/01/10 04:11:03;;;;;;;48.67;20.40;;;0.60;99.90;;;;;;5090117;28;20271;-59
2022/01/10 04:13:30;;;;;;;48.70;19.63;;;0.60;99.90;;;;;;5075812;28;20188;-59
2022/01/10 04:15:55;;;;;;;57.10;22.87;;;0.60;99.90;;;;;;5093833;28;20171;-60
2022/01/10 04:18:21;;;;;;;55.30;22.20;;;0.60;99.90;;;;;;5075727;28;20191;-59
2022/01/10 04:20:47;;;;;;;61.23;23.93;;;0.50;99.90;;;;;;5093902;28;20177;-59
2022/01/10 04:23:14;;;;;;;55.80;21.27;;;0.60;99.90;;;;;;5093639;28;20635;-59
2022/01/10 04:25:40;;;;;;;56.33;21.93;;;0.60;99.90;;;;;;5093773;28;20174;-59
2022/01/10 04:28:07;;;;;;;59.90;22.00;;;0.60;99.90;;;;;;5093580;28;20201;-59
2022/01/10 04:30:33;;;;;;;50.37;22.17;;;0.50;99.90;;;;;;5073006;28;20538;-59
2022/01/10 04:33:00;;;;;;;60.53;22.13;;;0.50;99.90;;;;;;5072742;28;20605;-59
2022/01/10 04:35:27;;;;;;;50.47;21.20;;;0.60;99.90;;;;;;5073079;28;20266;-59
2022/01/10 04:37:54;;;;;;;58.23;22.93;;;0.60;99.90;;;;;;5073061;28;20216;-60
2022/01/10 04:40:20;;;;;;;61.83;23.67;;;0.50;99.90;;;;;;5072866;28;20184;-60
2022/01/10 04:42:46;;;;;;;63.13;23.37;;;0.60;99.90;;;;;;5073056;28;20186;-59
2022/01/10 04:45:12;;;;;;;58.00;22.00;;;0.60;99.90;;;;;;5072323;28;20179;-59
2022/01/10 04:47:38;;;;;;;52.43;21.53;;;0.60;99.90;;;;;;5072142;28;20182;-59
2022/01/10 04:52:32;;;;;;;63.30;22.30;;;0.60;99.90;;;;;;5072590;28;20207;-60
2022/01/10 04:55:00;;;;;;;55.57;21.97;;;0.60;99.90;;;;;;5072052;28;20181;-59
2022/01/10 04:57:26;;;;;;;57.87;22.43;;;0.70;99.90;;;;;;5054863;28;20264;-60
2022/01/10 04:59:52;;;;;;;63.07;22.60;;;0.70;99.90;;;;;;5072502;28;20184;-59
2022/01/10 05:02:18;;;;;;;67.97;23.67;;;0.70;99.90;;;;;;5072140;28;20604;-59
2022/01/10 05:04:43;;;;;;;55.53;20.70;;;0.70;99.90;;;;;;5071953;28;20185;-59
2022/01/10 05:07:09;;;;;;;60.40;23.87;;;0.70;99.90;;;;;;5072296;28;20184;-59
2022/01/10 05:09:35;;;;;;;60.20;23.30;;;0.70;99.90;;;;;;5076823;28;20251;-60
2022/01/10 05:12:01;;;;;;;61.40;21.87;;;0.70;99.90;;;;;;5092098;28;20184;-61
2022/01/10 05:14:27;;;;;;;63.83;24.27;;;0.70;99.90;;;;;;5092577;28;20182;-60
2022/01/10 05:16:53;;;;;;;55.63;24.07;;;0.60;99.90;;;;;;5074227;28;20176;-60
2022/01/10 05:19:19;;;;;;;59.17;23.53;;;0.60;99.90;;;;;;5092214;28;20180;-60
2022/01/10 05:21:44;;;;;;;62.07;23.90;;;0.60;99.90;;;;;;5092380;28;20205;-59
2022/01/10 05:24:10;;;;;;;69.87;23.13;;;0.60;99.90;;;;;;5092195;28;20227;-60
2022/01/10 05:26:36;;;;;;;68.03;25.70;;;0.70;99.90;;;;;;5091838;28;20604;-60
2022/01/10 05:29:03;;;;;;;68.10;23.87;;;0.70;99.90;;;;;;5084237;28;20288;-60
2022/01/10 05:31:33;;;;;;;66.47;25.00;;;0.70;99.90;;;;;;5070997;28;20183;-60
2022/01/10 05:33:58;;;;;;;58.93;22.00;;;0.70;99.90;;;;;;5071582;28;20179;-62
2022/01/10 05:36:24;;;;;;;54.40;22.53;;;0.70;99.90;;;;;;5071515;28;20191;-60
2022/01/10 05:38:50;;;;;;;60.37;22.13;;;0.70;99.90;;;;;;5071154;28;20494;-60
2022/01/10 05:41:16;;;;;;;56.83;22.17;;;0.70;99.90;;;;;;5071117;28;20180;-60
2022/01/10 05:43:42;;;;;;;58.40;22.07;;;0.60;99.90;;;;;;5070737;28;20257;-61
2022/01/10 05:46:09;;;;;;;60.40;21.47;;;0.50;99.90;;;;;;5052980;28;20721;-60
2022/01/10 05:48:36;;;;;;;59.30;22.23;;;0.60;99.90;;;;;;5070492;28;20227;-60
2022/01/10 05:51:02;;;;;;;60.83;21.57;;;0.60;99.90;;;;;;5071459;28;20186;-61
2022/01/10 05:53:28;;;;;;;58.50;21.73;;;0.50;99.90;;;;;;5071020;28;20302;-60
2022/01/10 05:55:54;;;;;;;50.07;20.83;;;0.60;99.90;;;;;;5052859;28;20532;-60
2022/01/10 05:58:20;;;;;;;57.60;20.47;;;0.50;99.90;;;;;;5070763;28;20191;-60
2022/01/10 06:00:46;;;;;;;72.97;26.17;;;0.50;99.90;;;;;;5070746;28;20237;-60
2022/01/10 06:03:12;;;;;;;61.23;24.17;;;0.50;99.90;;;;;;5070793;28;20682;-60
2022/01/10 06:05:38;;;;;;;62.60;22.50;;;0.50;99.90;;;;;;5071136;28;20199;-60
2022/01/10 06:08:06;;;;;;;61.87;21.90;;;0.50;99.90;;;;;;5070905;28;20587;-63
2022/01/10 06:10:32;;;;;;;62.33;23.63;;;0.50;99.90;;;;;;5064781;28;20202;-63
2022/01/10 06:12:59;;;;;;;61.07;22.23;;;0.50;99.90;;;;;;5052937;28;20670;-61
2022/01/10 06:15:24;;;;;;;58.30;22.93;;;0.50;99.90;;;;;;5068933;28;20203;-60
2022/01/10 06:17:50;;;;;;;66.23;23.20;;;0.50;99.90;;;;;;5050583;28;20193;-62
2022/01/10 06:20:17;;;;;;;68.13;24.60;;;0.50;99.90;;;;;;5063466;28;20238;-59
2022/01/10 06:22:43;;;;;;;62.43;22.30;;;0.50;99.90;;;;;;5069868;28;20201;-60
2022/01/10 06:25:12;;;;;;;75.22;32.78;;;0.50;99.90;;;;;;5068380;28;20476;-61
2022/01/10 06:27:38;;;;;;;63.37;25.83;;;0.50;99.90;;;;;;5070138;28;20224;-56
2022/01/10 06:30:06;;;;;;;63.03;25.03;;;0.50;99.90;;;;;;5069398;28;20239;-65
2022/01/10 06:32:32;;;;;;;52.40;22.23;;;0.50;99.90;;;;;;5070583;28;20186;-62
2022/01/10 06:34:57;;;;;;;52.77;22.50;;;0.50;99.90;;;;;;5069977;28;20216;-55
2022/01/10 06:37:24;;;;;;;52.97;21.83;;;0.40;99.90;;;;;;5069556;28;20192;-57
2022/01/10 06:39:51;;;;;;;54.67;22.37;;;0.40;99.90;;;;;;5069799;28;20196;-55
2022/01/10 06:42:17;;;;;;;54.83;20.20;;;0.40;99.90;;;;;;5047326;28;20193;-60
2022/01/10 06:44:42;;;;;;;53.50;21.47;;;0.40;99.90;;;;;;5064055;28;20193;-59
2022/01/10 06:47:08;;;;;;;55.80;20.40;;;0.30;99.90;;;;;;5059322;28;20177;-60
2022/01/10 06:49:34;;;;;;;45.40;19.77;;;0.30;99.90;;;;;;5069758;28;20244;-64
2022/01/10 06:52:00;;;;;;;50.17;20.27;;;0.20;99.90;;;;;;5070261;28;20191;-60
2022/01/10 06:54:26;;;;;;;43.70;18.43;;;0.20;99.90;;;;;;5070005;28;20185;-61
2022/01/10 06:56:52;;;;;;;44.43;18.33;;;0.20;99.90;;;;;;5069766;28;20197;-60
2022/01/10 06:59:19;;;;;;;37.13;17.27;;;0.20;99.90;;;;;;5069917;28;20192;-61
2022/01/10 07:01:45;;;;;;;39.57;18.00;;;0.20;99.90;;;;;;5069673;28;20639;-63
2022/01/10 07:04:12;;;;;;;43.00;18.63;;;0.20;99.90;;;;;;5069854;28;20189;-61
2022/01/10 07:06:40;;;;;;;44.20;18.33;;;0.20;99.90;;;;;;5069749;28;20205;-61
2022/01/10 07:09:07;;;;;;;42.83;18.60;;;0.10;99.90;;;;;;5069245;28;20247;-61
2022/01/10 07:11:33;;;;;;;37.80;17.47;;;0.10;99.90;;;;;;5063258;28;20668;-61
2022/01/10 07:13:58;;;;;;;41.43;17.20;;;0.00;99.90;;;;;;5072609;28;20271;-61
2022/01/10 07:16:24;;;;;;;45.50;18.90;;;0.10;99.90;;;;;;5072981;28;20237;-61
2022/01/10 07:18:50;;;;;;;44.17;19.57;;;0.10;99.90;;;;;;5054721;28;20214;-60
2022/01/10 07:21:16;;;;;;;46.53;18.47;;;0.10;99.90;;;;;;5063309;28;20514;-62
2022/01/10 07:23:41;;;;;;;41.57;17.27;;;0.10;99.90;;;;;;5072810;28;20186;-61
2022/01/10 07:26:07;;;;;;;40.20;18.37;;;0.10;99.90;;;;;;5066135;28;20190;-60
2022/01/10 07:28:33;;;;;;;42.43;18.07;;;0.10;99.90;;;;;;5065986;28;20287;-59
2022/01/10 07:30:59;;;;;;;43.63;19.67;;;0.10;99.90;;;;;;5066178;28;20191;-62
2022/01/10 07:33:24;;;;;;;43.80;17.37;;;0.20;99.90;;;;;;5066560;28;20272;-61
2022/01/10 07:35:50;;;;;;;45.13;19.47;;;0.20;99.90;;;;;;5066044;28;20976;-62
2022/01/10 07:38:16;;;;;;;42.77;17.40;;;0.10;99.90;;;;;;5065526;28;20204;-60
2022/01/10 07:40:42;;;;;;;45.60;18.83;;;0.10;99.90;;;;;;5060071;28;20277;-60
2022/01/10 07:43:07;;;;;;;43.77;19.17;;;0.00;99.90;;;;;;5072088;28;20277;-60
2022/01/10 07:45:33;;;;;;;42.90;18.40;;;-0.10;99.90;;;;;;5072876;28;20189;-60
2022/01/10 07:47:59;;;;;;;39.47;15.80;;;-0.20;99.90;;;;;;5068389;28;20234;-61
2022/01/10 07:50:26;;;;;;;34.07;14.53;;;-0.20;99.90;;;;;;5052823;28;20215;-61
2022/01/10 07:52:51;;;;;;;30.60;14.17;;;-0.30;99.90;;;;;;5071787;28;20181;-65
2022/01/10 07:55:17;;;;;;;34.47;15.87;;;-0.20;99.90;;;;;;5072916;28;20183;-62
2022/01/10 07:57:45;;;;;;;31.00;14.47;;;-0.20;99.90;;;;;;5073157;28;20179;-63
2022/01/10 08:00:12;;;;;;;30.43;14.17;;;-0.20;99.90;;;;;;5072962;28;20182;-62
2022/01/10 08:02:38;;;;;;;27.67;13.10;;;-0.30;99.90;;;;;;5072925;28;20188;-61
2022/01/10 08:05:07;;;;;;;24.13;11.80;;;-0.30;99.90;;;;;;5054534;28;20183;-64
2022/01/10 08:07:36;;;;;;;27.47;14.50;;;-0.40;99.90;;;;;;5071933;28;20267;-60
2022/01/10 08:10:06;;;;;;;34.07;16.60;;;-0.40;99.90;;;;;;5061817;28;20231;-59
2022/01/10 08:12:32;;;;;;;32.87;15.67;;;-0.40;99.90;;;;;;5091881;28;20213;-61
2022/01/10 08:14:58;;;;;;;40.67;20.00;;;-0.40;99.90;;;;;;5090606;28;20225;-62
2022/01/10 08:17:24;;;;;;;35.53;17.27;;;-0.30;99.90;;;;;;5091760;28;20292;-60
2022/01/10 08:19:49;;;;;;;33.80;15.47;;;-0.40;99.90;;;;;;5092083;28;20537;-61
2022/01/10 08:22:16;;;;;;;29.17;15.20;;;-0.30;99.90;;;;;;5092704;28;20609;-61
2022/01/10 08:24:41;;;;;;;28.80;13.27;;;-0.30;99.90;;;;;;5074686;28;20253;-60
2022/01/10 08:27:07;;;;;;;25.83;11.33;;;-0.40;99.90;;;;;;5093059;28;20242;-62
2022/01/10 08:29:33;;;;;;;29.63;14.20;;;-0.30;99.90;;;;;;5080424;28;20213;-63
2022/01/10 08:31:59;;;;;;;25.87;13.67;;;-0.40;99.90;;;;;;5072484;28;20182;-62
2022/01/10 08:34:25;;;;;;;33.03;16.10;;;-0.40;99.90;;;;;;5072017;28;20197;-60
2022/01/10 08:36:52;;;;;;;35.00;15.60;;;-0.40;99.90;;;;;;5072306;28;20261;-60
2022/01/10 08:39:19;;;;;;;29.40;14.17;;;-0.30;99.90;;;;;;5072225;28;20199;-60
2022/01/10 08:41:44;;;;;;;32.63;14.47;;;-0.40;99.90;;;;;;5071795;28;20192;-62
2022/01/10 08:44:10;;;;;;;31.73;14.43;;;-0.40;99.90;;;;;;5071775;28;20183;-62
2022/01/10 08:46:36;;;;;;;31.40;14.70;;;-0.40;99.90;;;;;;5072279;28;20175;-60
2022/01/10 08:49:03;;;;;;;33.30;13.83;;;-0.40;99.90;;;;;;5071353;28;20244;-61
2022/01/10 08:51:29;;;;;;;35.83;16.20;;;-0.40;99.90;;;;;;5071791;28;20552;-60
2022/01/10 08:53:55;;;;;;;33.50;15.60;;;-0.50;99.90;;;;;;5072034;28;20191;-60
2022/01/10 08:56:21;;;;;;;33.90;15.20;;;-0.40;99.90;;;;;;5071555;28;20175;-60
2022/01/10 08:58:47;;;;;;;41.03;17.53;;;-0.40;99.90;;;;;;5071908;28;20177;-61
2022/01/10 09:01:13;;;;;;;35.97;15.83;;;-0.50;99.90;;;;;;5072306;28;20221;-61
2022/01/10 09:03:39;;;;;;;39.27;15.57;;;-0.40;99.90;;;;;;5072179;28;20202;-64
2022/01/10 09:06:04;;;;;;;31.40;14.20;;;-0.30;99.90;;;;;;5071870;28;20186;-61
2022/01/10 09:08:34;;;;;;;40.70;17.53;;;-0.40;99.90;;;;;;5053759;28;20209;-63
2022/01/10 09:11:01;;;;;;;34.90;15.03;;;-0.30;99.90;;;;;;5088253;28;20183;-61
2022/01/10 09:13:27;;;;;;;30.77;14.33;;;-0.20;99.90;;;;;;5091939;28;20280;-61
2022/01/10 09:15:53;;;;;;;36.47;16.93;;;-0.20;99.90;;;;;;5092502;28;20250;-59
2022/01/10 09:18:20;;;;;;;36.07;17.13;;;-0.10;99.90;;;;;;5091671;28;20182;-60
2022/01/10 09:20:46;;;;;;;31.47;14.50;;;-0.10;99.90;;;;;;5091945;28;20208;-64
2022/01/10 09:23:12;;;;;;;31.43;14.73;;;-0.10;99.90;;;;;;5091222;28;20181;-60
2022/01/10 09:25:38;;;;;;;37.03;15.43;;;-0.30;99.90;;;;;;5091316;28;20193;-60
2022/01/10 09:28:04;;;;;;;35.43;17.17;;;-0.20;99.90;;;;;;5091537;28;20173;-61
2022/01/10 09:30:30;;;;;;;32.90;14.67;;;-0.10;99.90;;;;;;5071420;28;20211;-61
2022/01/10 09:32:56;;;;;;;35.97;15.27;;;-0.10;99.90;;;;;;5071639;28;20171;-60
2022/01/10 09:35:23;;;;;;;34.13;15.33;;;-0.20;99.90;;;;;;5070758;28;20231;-60
2022/01/10 09:37:50;;;;;;;31.60;14.53;;;-0.20;99.90;;;;;;5071055;28;20174;-61
2022/01/10 09:40:18;;;;;;;32.47;14.37;;;-0.30;99.90;;;;;;5071566;28;20183;-61
2022/01/10 09:42:46;;;;;;;33.37;15.27;;;-0.30;99.90;;;;;;5071282;28;20195;-60
2022/01/10 09:45:12;;;;;;;30.80;14.90;;;-0.30;99.90;;;;;;5070984;28;20274;-61
2022/01/10 09:47:38;;;;;;;40.57;15.80;;;-0.30;99.90;;;;;;5071035;28;20277;-61
2022/01/10 09:50:07;;;;;;;33.33;15.53;;;-0.30;99.90;;;;;;5070996;28;20224;-60
2022/01/10 09:52:34;;;;;;;38.63;15.63;;;-0.20;99.90;;;;;;5070644;28;20191;-62
2022/01/10 09:55:00;;;;;;;40.67;15.47;;;-0.20;99.90;;;;;;5052797;28;20310;-61
2022/01/10 09:57:25;;;;;;;33.63;16.27;;;-0.20;99.90;;;;;;5071270;28;20206;-62
2022/01/10 09:59:51;;;;;;;34.67;15.33;;;-0.10;99.90;;;;;;5071558;28;20187;-62
2022/01/10 10:02:18;;;;;;;34.33;15.80;;;-0.10;99.90;;;;;;5070906;28;20513;-62
2022/01/10 10:04:44;;;;;;;34.10;15.33;;;-0.10;99.90;;;;;;5070800;28;20172;-60
2022/01/10 10:07:11;;;;;;;34.70;15.23;;;-0.10;99.90;;;;;;5052972;28;20181;-61
2022/01/10 10:09:37;;;;;;;46.23;17.40;;;-0.10;99.90;;;;;;5057080;28;20215;-64
2022/01/10 10:12:04;;;;;;;29.47;13.57;;;-0.10;99.90;;;;;;5072866;28;20182;-62
2022/01/10 10:14:30;;;;;;;39.03;16.10;;;-0.10;99.90;;;;;;5091445;28;20182;-60
2022/01/10 10:16:57;;;;;;;37.83;16.37;;;-0.10;99.90;;;;;;5091023;28;20207;-60
2022/01/10 10:19:28;;;;;;;28.30;12.60;;;0.00;99.90;;;;;;5091114;28;20194;-62
2022/01/10 10:21:56;;;;;;;41.03;16.20;;;0.00;99.90;;;;;;5091237;28;20170;-61
2022/01/10 10:24:23;;;;;;;31.67;14.90;;;0.00;99.90;;;;;;5073220;28;20232;-61
2022/01/10 10:26:51;;;;;;;30.50;15.63;;;-0.10;99.90;;;;;;5072895;28;20173;-62
2022/01/10 10:29:18;;;;;;;31.97;13.13;;;-0.10;99.90;;;;;;5080997;28;20219;-63
2022/01/10 10:31:49;;;;;;;36.27;15.13;;;0.00;99.90;;;;;;5070578;28;20191;-62
2022/01/10 10:34:27;;;;;;;29.33;15.00;;;0.00;99.90;;;;;;5070745;28;20179;-62
2022/01/10 10:37:00;;;;;;;43.27;14.10;;;-0.10;99.90;;;;;;5070936;28;20239;-64
2022/01/10 10:39:26;;;;;;;42.27;15.93;;;-0.10;99.90;;;;;;5069926;28;20196;-61
2022/01/10 10:41:58;;;;;;;42.33;20.00;;;-0.10;99.90;;;;;;5070275;28;20274;-61
2022/01/10 10:44:25;;;;;;;43.27;18.80;;;-0.30;99.90;;;;;;5069628;28;20186;-61
2022/01/10 10:46:51;;;;;;;47.77;19.73;;;-0.40;99.90;;;;;;5070098;28;20178;-62
2022/01/10 10:49:19;;;;;;;39.03;17.30;;;-0.30;99.90;;;;;;5054214;28;20240;-61
2022/01/10 10:51:49;;;;;;;48.00;18.93;;;-0.40;99.90;;;;;;5054462;28;20174;-60
2022/01/10 10:54:16;;;;;;;41.10;19.50;;;-0.40;99.90;;;;;;5035978;28;20184;-68
2022/01/10 10:56:43;;;;;;;49.73;19.67;;;-0.50;99.90;;;;;;5035530;28;20190;-60
2022/01/10 10:59:13;;;;;;;36.83;17.60;;;-0.40;99.90;;;;;;5053777;28;20175;-61
2022/01/10 11:01:41;;;;;;;48.17;19.80;;;-0.30;99.90;;;;;;5052927;28;20684;-64
2022/01/10 11:04:10;;;;;;;48.93;19.00;;;-0.40;99.90;;;;;;5053974;28;20179;-61
2022/01/10 11:06:37;;;;;;;40.27;16.17;;;-0.40;99.90;;;;;;5053595;28;20180;-62
2022/01/10 11:09:06;;;;;;;33.53;14.93;;;-0.40;99.90;;;;;;5035729;28;20227;-61
2022/01/10 11:11:32;;;;;;;48.00;19.33;;;-0.40;99.90;;;;;;5094137;28;20173;-61
2022/01/10 11:14:00;;;;;;;44.50;18.30;;;-0.40;99.90;;;;;;5094257;28;20174;-60
2022/01/10 11:16:27;;;;;;;47.00;18.47;;;-0.30;99.90;;;;;;5093298;28;20177;-61
2022/01/10 11:18:53;;;;;;;42.40;18.30;;;-0.30;99.90;;;;;;5092913;28;20203;-61
2022/01/10 11:21:22;;;;;;;42.97;16.73;;;-0.30;99.90;;;;;;5093230;28;20273;-62
2022/01/10 11:23:50;;;;;;;41.87;17.20;;;-0.30;99.90;;;;;;5093320;28;20180;-60
2022/01/10 11:26:17;;;;;;;41.53;14.77;;;-0.30;99.90;;;;;;5093366;28;20204;-62
2022/01/10 11:28:54;;;;;;;43.90;16.27;;;-0.20;99.90;;;;;;5088861;28;20207;-62
2022/01/10 11:31:23;;;;;;;45.20;16.90;;;0.00;99.90;;;;;;5073521;28;20283;-60
2022/01/10 11:33:49;;;;;;;40.77;17.67;;;0.00;99.90;;;;;;5055675;28;20616;-60
2022/01/10 11:36:19;;;;;;;58.33;19.30;;;0.00;99.90;;;;;;5073264;28;20184;-60
2022/01/10 11:38:49;;;;;;;40.50;17.90;;;0.00;99.90;;;;;;5073316;28;20632;-64
2022/01/10 11:41:32;;;;;;;42.43;18.10;;;0.10;99.90;;;;;;5072816;28;20611;-63
2022/01/10 11:44:11;;;;;;;37.13;17.53;;;0.20;99.90;;;;;;5073512;28;20237;-62
2022/01/10 11:46:43;;;;;;;43.77;18.10;;;0.30;99.90;;;;;;5073201;28;20296;-63
2022/01/10 11:49:09;;;;;;;57.83;20.87;;;0.30;99.90;;;;;;5072491;28;20285;-60
2022/01/10 11:52:00;;;;;;;40.30;17.17;;;0.40;99.90;;;;;;5072549;28;20188;-61
2022/01/10 11:54:38;;;;;;;40.23;17.67;;;0.30;99.90;;;;;;5072632;28;20183;-63
2022/01/10 11:57:10;;;;;;;38.97;17.27;;;0.20;99.90;;;;;;5073399;28;20167;-61
2022/01/10 11:59:37;;;;;;;46.20;18.13;;;0.20;99.90;;;;;;5072243;28;20529;-60
2022/01/10 12:02:14;;;;;;;35.47;15.27;;;0.30;99.90;;;;;;5072908;28;20181;-60
2022/01/10 12:04:47;;;;;;;40.40;16.87;;;0.30;99.90;;;;;;5073113;28;20247;-61
2022/01/10 12:07:15;;;;;;;46.60;19.63;;;0.40;99.90;;;;;;5072318;28;20645;-61
2022/01/10 12:09:42;;;;;;;37.67;15.77;;;0.40;99.90;;;;;;5077924;28;20501;-62
2022/01/10 12:12:09;;;;;;;45.77;17.20;;;0.40;99.90;;;;;;5092830;28;20258;-61
2022/01/10 12:14:35;;;;;;;50.30;17.53;;;0.50;99.90;;;;;;5092765;28;20206;-61
2022/01/10 12:17:02;;;;;;;55.60;17.00;;;0.60;99.90;;;;;;5092555;28;20173;-64
2022/01/10 12:19:28;;;;;;;44.67;17.73;;;0.70;99.90;;;;;;5092644;28;20182;-59
2022/01/10 12:21:55;;;;;;;39.00;15.77;;;0.60;99.90;;;;;;5092692;28;20263;-60
2022/01/10 12:24:21;;;;;;;33.77;13.57;;;0.50;99.90;;;;;;5074646;28;20194;-61
2022/01/10 12:26:48;;;;;;;35.87;15.03;;;0.40;99.90;;;;;;5092653;28;20210;-61
2022/01/10 12:29:15;;;;;;;33.27;14.67;;;0.30;99.90;;;;;;5083653;28;20217;-60
2022/01/10 12:31:43;;;;;;;45.23;18.80;;;0.20;99.90;;;;;;5054291;28;20177;-59
2022/01/10 12:34:10;;;;;;;30.77;14.20;;;0.30;99.90;;;;;;5055195;28;20195;-60
2022/01/10 12:36:37;;;;;;;23.43;11.77;;;0.20;99.90;;;;;;5072446;28;20185;-60
2022/01/10 12:39:10;;;;;;;28.07;14.23;;;0.00;99.90;;;;;;5072492;28;20186;-60
2022/01/10 12:41:36;;;;;;;30.20;14.87;;;-0.10;99.90;;;;;;5072044;28;20170;-62